Terminal Aerodrome Forecast
Issued by NWS

Home | Current Version | Previous Version | Text Only | Print | Product List | Glossary On
Versions: 1 2 3 4 5 6 7 8 9 10 11 12 13
000
FTUS42 KTAE 021122
TAFABY
TAF
KABY 021122Z 0212/0312 24005KT P6SM SCT040 SCT250
      TEMPO 0218/0222 26010G20KT 5SM TSRA SCT040CB
     FM030000 22006KT P6SM OVC250=

USA.gov is the U.S. government's official web portal to all federal, state and local government web resources and services.